createdAt,value
2023-02-13T00:00:19.662Z,103350.34
2023-02-13T00:01:51.141Z,103352.09
2023-02-13T00:03:22.664Z,103353.84
2023-02-13T00:04:54.119Z,103356.47
2023-02-13T00:06:25.663Z,103355.59
2023-02-13T00:07:57.455Z,103351.22
2023-02-13T00:09:30.352Z,103352.97
2023-02-13T00:11:01.872Z,103347.72
2023-02-13T00:12:33.377Z,103355.59
2023-02-13T00:14:05.052Z,103351.22
2023-02-13T00:15:36.560Z,103352.97
2023-02-13T00:17:08.199Z,103352.94
2023-02-13T00:18:39.682Z,103351.13
2023-02-13T00:20:11.707Z,103352.00
2023-02-13T00:21:43.205Z,103346.72
2023-02-13T00:23:14.675Z,103343.22
2023-02-13T00:24:47.665Z,103335.34
2023-02-13T00:26:19.412Z,103337.97
2023-02-13T00:27:53.925Z,103329.22
2023-02-13T00:29:26.652Z,103340.59
2023-02-13T00:31:02.571Z,103337.94
2023-02-13T00:32:34.045Z,103330.94
2023-02-13T00:34:05.939Z,103326.53
2023-02-13T00:35:37.753Z,103322.16
2023-02-13T00:37:09.246Z,103326.50
2023-02-13T00:38:41.562Z,103328.25
2023-02-13T00:40:14.566Z,103319.50
2023-02-13T00:41:46.136Z,103317.75
2023-02-13T00:43:17.996Z,103319.50
2023-02-13T00:44:50.412Z,103317.72
2023-02-13T00:46:22.016Z,103322.13
2023-02-13T00:47:53.580Z,103319.47
2023-02-13T00:49:25.576Z,103325.63
2023-02-13T00:50:57.291Z,103315.06
2023-02-13T00:52:28.908Z,103315.97
2023-02-13T00:54:01.187Z,103315.06
2023-02-13T00:55:35.631Z,103321.19
2023-02-13T00:57:07.180Z,103319.44
2023-02-13T00:58:39.866Z,103314.16
2023-02-13T01:00:12.021Z,103317.66
2023-02-13T01:01:46.133Z,103322.03
2023-02-13T01:03:18.760Z,103322.94
2023-02-13T01:04:50.478Z,103321.16
2023-02-13T01:06:23.297Z,103322.03
2023-02-13T01:07:54.781Z,103320.31
2023-02-13T01:09:26.255Z,103318.56
2023-02-13T01:10:59.491Z,103323.81
2023-02-13T01:12:31.519Z,103316.81
2023-02-13T01:14:03.312Z,103322.06
2023-02-13T01:15:34.915Z,103315.91
2023-02-13T01:17:06.439Z,103316.81
2023-02-13T01:18:38.623Z,103319.41
2023-02-13T01:20:11.375Z,103317.66
2023-02-13T01:21:42.994Z,103319.41
2023-02-13T01:23:14.560Z,103315.03
2023-02-13T01:24:46.056Z,103317.69
2023-02-13T01:26:20.679Z,103315.91
2023-02-13T01:27:54.378Z,103314.16
2023-02-13T01:29:25.903Z,103314.13
2023-02-13T01:30:58.464Z,103311.50
2023-02-13T01:32:30.155Z,103309.72
2023-02-13T01:34:01.699Z,103308.88
2023-02-13T01:35:33.206Z,103309.72
2023-02-13T01:37:04.711Z,103312.34
2023-02-13T01:38:36.182Z,103307.94
2023-02-13T01:40:08.652Z,103310.59
2023-02-13T01:41:41.559Z,103308.81
2023-02-13T01:43:13.141Z,103315.81
2023-02-13T01:44:49.276Z,103311.44
2023-02-13T01:46:26.047Z,103307.91
2023-02-13T01:47:59.516Z,103303.53
2023-02-13T01:49:31.317Z,103299.16
2023-02-13T01:51:04.625Z,103300.00
2023-02-13T01:52:38.119Z,103305.25
2023-02-13T01:54:13.780Z,103302.63
2023-02-13T01:55:47.332Z,103292.97
2023-02-13T01:57:22.581Z,103299.13
2023-02-13T01:58:57.281Z,103303.50
2023-02-13T02:00:29.200Z,103303.53
2023-02-13T02:02:01.227Z,103306.16
2023-02-13T02:03:36.007Z,103291.22
2023-02-13T02:05:12.348Z,103293.88
2023-02-13T02:06:46.432Z,103305.25
2023-02-13T02:08:26.262Z,103300.84
2023-02-13T02:10:00.295Z,103309.63
2023-02-13T02:11:42.266Z,103299.09
2023-02-13T02:13:20.873Z,103302.59
2023-02-13T02:14:53.379Z,103308.75
2023-02-13T02:16:27.081Z,103302.59
2023-02-13T02:17:58.624Z,103313.09
2023-02-13T02:19:35.135Z,103312.22
2023-02-13T02:21:28.405Z,103308.72
2023-02-13T02:23:16.918Z,103300.81
2023-02-13T02:25:03.444Z,103299.03
2023-02-13T02:26:48.150Z,103303.41
2023-02-13T02:28:30.024Z,103306.88
2023-02-13T02:30:26.525Z,103299.88
2023-02-13T02:32:14.197Z,103306.03
2023-02-13T02:33:50.657Z,103309.56
2023-02-13T02:35:27.572Z,103309.56
2023-02-13T02:37:05.868Z,103312.16
2023-02-13T02:38:43.966Z,103303.38
2023-02-13T02:40:24.096Z,103300.78
2023-02-13T02:42:02.645Z,103298.13
2023-02-13T02:43:42.229Z,103306.88
2023-02-13T02:45:19.628Z,103300.75
2023-02-13T02:47:16.168Z,103303.38
2023-02-13T02:49:12.817Z,103294.63
2023-02-13T02:50:50.205Z,103299.88
2023-02-13T02:52:27.522Z,103302.50
2023-02-13T02:54:03.672Z,103291.97
2023-02-13T02:55:38.713Z,103296.31
2023-02-13T02:57:13.995Z,103299.78
2023-02-13T02:59:06.383Z,103295.41
2023-02-13T03:01:00.704Z,103288.41
2023-02-13T03:02:51.389Z,103301.56
2023-02-13T03:04:45.136Z,103298.91
2023-02-13T03:06:19.772Z,103302.41
2023-02-13T03:07:51.354Z,103295.41
2023-02-13T03:09:43.629Z,103312.03
2023-02-13T03:11:33.557Z,103304.19
2023-02-13T03:13:22.655Z,103304.16
2023-02-13T03:14:54.125Z,103305.06
2023-02-13T03:16:44.094Z,103303.28
2023-02-13T03:18:34.307Z,103298.03
2023-02-13T03:20:32.671Z,103297.16
2023-02-13T03:22:21.493Z,103295.44
2023-02-13T03:23:57.377Z,103303.28
2023-02-13T03:25:30.321Z,103306.78
2023-02-13T03:27:06.156Z,103294.53
2023-02-13T03:29:00.152Z,103301.53
2023-02-13T03:30:35.657Z,103297.16
2023-02-13T03:32:10.558Z,103299.75
2023-02-13T03:33:46.501Z,103297.97
2023-02-13T03:35:47.042Z,103294.50
2023-02-13T03:37:40.122Z,103289.22
2023-02-13T03:39:13.910Z,103290.94
2023-02-13T03:41:08.012Z,103294.47
2023-02-13T03:42:42.741Z,103287.41
2023-02-13T03:44:18.203Z,103288.25
2023-02-13T03:45:52.843Z,103293.50
2023-02-13T03:47:24.396Z,103294.31
2023-02-13T03:49:15.778Z,103289.06
2023-02-13T03:50:48.790Z,103296.94
2023-02-13T03:52:24.743Z,103296.94
2023-02-13T03:53:59.219Z,103296.91
2023-02-13T03:55:51.418Z,103297.75
2023-02-13T03:57:43.001Z,103290.69
2023-02-13T03:59:18.703Z,103295.91
2023-02-13T04:00:52.008Z,103297.66
2023-02-13T04:02:26.427Z,103297.63
2023-02-13T04:04:01.336Z,103300.22
2023-02-13T04:05:36.514Z,103293.19
2023-02-13T04:07:12.149Z,103307.22
2023-02-13T04:08:43.805Z,103302.81
2023-02-13T04:10:16.320Z,103292.31
2023-02-13T04:11:52.733Z,103296.63
2023-02-13T04:13:27.796Z,103301.84
2023-02-13T04:15:07.065Z,103297.44
2023-02-13T04:16:39.932Z,103293.06
2023-02-13T04:18:14.498Z,103301.78
2023-02-13T04:19:46.100Z,103307.00
2023-02-13T04:21:17.622Z,103296.50
2023-02-13T04:22:50.804Z,103302.59
2023-02-13T04:24:22.506Z,103304.34
2023-02-13T04:25:55.867Z,103301.69
2023-02-13T04:27:28.130Z,103303.47
2023-02-13T04:28:59.610Z,103291.19
2023-02-13T04:30:31.255Z,103299.94
2023-02-13T04:32:02.825Z,103295.56
2023-02-13T04:33:34.338Z,103298.16
2023-02-13T04:35:06.206Z,103296.41
2023-02-13T04:36:37.752Z,103307.75
2023-02-13T04:38:10.571Z,103308.66
2023-02-13T04:39:42.073Z,103306.00
2023-02-13T04:41:13.823Z,103300.72
2023-02-13T04:42:47.735Z,103303.34
2023-02-13T04:44:19.204Z,103306.00
2023-02-13T04:45:50.960Z,103305.09
2023-02-13T04:47:22.489Z,103305.03
2023-02-13T04:48:53.964Z,103311.13
2023-02-13T04:50:25.580Z,103304.13
2023-02-13T04:51:57.067Z,103300.59
2023-02-13T04:53:29.871Z,103297.97
2023-02-13T04:55:01.360Z,103301.53
2023-02-13T04:56:32.880Z,103300.69
2023-02-13T04:58:04.361Z,103290.13
2023-02-13T04:59:35.897Z,103294.50
2023-02-13T05:01:11.512Z,103296.22
2023-02-13T05:02:42.934Z,103295.31
2023-02-13T05:04:16.364Z,103290.91
2023-02-13T05:05:48.563Z,103291.75
2023-02-13T05:07:20.078Z,103289.13
2023-02-13T05:08:52.978Z,103296.94
2023-02-13T05:10:24.547Z,103293.47
2023-02-13T05:11:55.988Z,103296.97
2023-02-13T05:13:27.460Z,103296.97
2023-02-13T05:14:58.932Z,103296.97
2023-02-13T05:16:30.418Z,103299.59
2023-02-13T05:18:01.863Z,103303.13
2023-02-13T05:19:33.306Z,103297.88
2023-02-13T05:21:23.424Z,103298.75
2023-02-13T05:23:13.402Z,103303.09
2023-02-13T05:24:46.320Z,103303.06
2023-02-13T05:26:18.097Z,103298.72
2023-02-13T05:27:49.533Z,103292.59
2023-02-13T05:29:22.915Z,103302.22
2023-02-13T05:30:54.599Z,103294.28
2023-02-13T05:32:26.136Z,103297.75
2023-02-13T05:33:57.571Z,103292.53
2023-02-13T05:35:29.046Z,103287.31
2023-02-13T05:37:00.638Z,103290.00
2023-02-13T05:38:32.166Z,103294.41
2023-02-13T05:40:05.649Z,103295.31
2023-02-13T05:41:37.161Z,103299.72
2023-02-13T05:43:08.660Z,103301.53
2023-02-13T05:44:40.223Z,103291.91
2023-02-13T05:46:11.796Z,103296.25
2023-02-13T05:47:43.354Z,103290.09
2023-02-13T05:49:15.266Z,103290.94
2023-02-13T05:50:47.111Z,103307.56
2023-02-13T05:52:18.611Z,103299.69
2023-02-13T05:53:50.147Z,103292.72
2023-02-13T05:55:22.998Z,103301.44
2023-02-13T05:56:54.525Z,103297.06
2023-02-13T05:58:26.080Z,103299.72
2023-02-13T05:59:57.537Z,103292.72
2023-02-13T06:01:29.056Z,103297.06
2023-02-13T06:03:00.578Z,103294.44
2023-02-13T06:04:32.153Z,103290.06
2023-02-13T06:06:03.783Z,103287.44
2023-02-13T06:07:35.326Z,103283.91
2023-02-13T06:09:06.819Z,103292.63
2023-02-13T06:10:40.723Z,103293.53
2023-02-13T06:12:12.189Z,103283.91
2023-02-13T06:13:43.906Z,103292.56
2023-02-13T06:15:15.413Z,103285.59
2023-02-13T06:16:47.167Z,103288.16
2023-02-13T06:18:18.699Z,103280.28
2023-02-13T06:19:50.248Z,103274.97
2023-02-13T06:21:22.628Z,103282.88
2023-02-13T06:22:54.775Z,103278.44
2023-02-13T06:24:26.355Z,103287.13
2023-02-13T06:26:03.458Z,103286.25
2023-02-13T06:27:34.952Z,103279.25
2023-02-13T06:29:06.889Z,103281.84
2023-02-13T06:30:38.546Z,103279.25
2023-02-13T06:32:10.073Z,103281.84
2023-02-13T06:33:41.602Z,103282.72
2023-02-13T06:35:13.682Z,103279.19
2023-02-13T06:36:45.339Z,103286.16
2023-02-13T06:38:19.118Z,103283.53
2023-02-13T06:39:50.847Z,103284.41
2023-02-13T06:41:23.714Z,103280.06
2023-02-13T06:42:55.272Z,103283.53
2023-02-13T06:44:27.139Z,103287.03
2023-02-13T06:45:59.175Z,103293.09
2023-02-13T06:47:30.685Z,103281.72
2023-02-13T06:49:02.304Z,103275.63
2023-02-13T06:50:34.668Z,103279.03
2023-02-13T06:52:06.213Z,103282.56
2023-02-13T06:53:37.683Z,103279.06
2023-02-13T06:55:09.270Z,103279.06
2023-02-13T06:56:42.087Z,103272.94
2023-02-13T06:58:13.556Z,103285.19
2023-02-13T06:59:45.026Z,103280.81
2023-02-13T07:01:16.603Z,103268.59
2023-02-13T07:02:48.248Z,103282.56
2023-02-13T07:04:19.758Z,103284.31
2023-02-13T07:05:52.098Z,103280.78
2023-02-13T07:07:24.702Z,103283.34
2023-02-13T07:08:56.294Z,103283.34
2023-02-13T07:10:27.920Z,103283.31
2023-02-13T07:12:02.186Z,103278.94
2023-02-13T07:13:33.676Z,103279.78
2023-02-13T07:15:05.745Z,103285.06
2023-02-13T07:16:37.217Z,103290.28
2023-02-13T07:18:09.136Z,103289.41
2023-02-13T07:19:40.614Z,103297.25
2023-02-13T07:21:12.106Z,103285.03
2023-02-13T07:22:43.634Z,103290.28
2023-02-13T07:24:15.126Z,103286.75
2023-02-13T07:25:46.600Z,103291.16
2023-02-13T07:27:19.530Z,103285.94
2023-02-13T07:28:56.940Z,103291.16
2023-02-13T07:30:37.280Z,103286.75
2023-02-13T07:32:09.193Z,103290.25
2023-02-13T07:33:40.736Z,103291.13
2023-02-13T07:35:12.601Z,103292.03
2023-02-13T07:36:44.183Z,103292.06
2023-02-13T07:38:16.284Z,103292.06
2023-02-13T07:39:47.865Z,103292.06
2023-02-13T07:41:19.986Z,103295.56
2023-02-13T07:42:52.890Z,103293.88
2023-02-13T07:44:24.417Z,103293.88
2023-02-13T07:45:58.505Z,103297.38
2023-02-13T07:47:30.267Z,103299.13
2023-02-13T07:49:01.816Z,103298.28
2023-02-13T07:50:33.393Z,103301.78
2023-02-13T07:52:05.655Z,103306.19
2023-02-13T07:53:37.174Z,103301.88
2023-02-13T07:55:08.753Z,103308.06
2023-02-13T07:56:40.295Z,103298.44
2023-02-13T07:58:13.165Z,103311.63
2023-02-13T07:59:45.640Z,103303.78
2023-02-13T08:01:17.353Z,103305.56
2023-02-13T08:02:48.883Z,103304.75
2023-02-13T08:04:20.453Z,103306.53
2023-02-13T08:05:52.051Z,103304.81
2023-02-13T08:07:23.665Z,103308.31
2023-02-13T08:09:15.172Z,103295.22
2023-02-13T08:11:05.390Z,103307.56
2023-02-13T08:12:36.912Z,103311.94
2023-02-13T08:14:09.862Z,103295.31
2023-02-13T08:15:41.629Z,103313.75
2023-02-13T08:17:13.523Z,103304.13
2023-02-13T08:18:45.036Z,103315.59
2023-02-13T08:20:16.635Z,103308.63
2023-02-13T08:21:48.126Z,103313.88
2023-02-13T08:23:19.765Z,103306.00
2023-02-13T08:24:51.293Z,103301.69
2023-02-13T08:26:23.114Z,103299.94
2023-02-13T08:27:54.585Z,103303.50
2023-02-13T08:29:27.797Z,103314.00
2023-02-13T08:30:59.435Z,103306.19
2023-02-13T08:32:32.526Z,103305.41
2023-02-13T08:34:07.552Z,103305.44
2023-02-13T08:35:39.083Z,103308.97
2023-02-13T08:37:10.577Z,103315.22
2023-02-13T08:38:42.681Z,103317.84
2023-02-13T08:40:14.929Z,103317.94
2023-02-13T08:41:46.495Z,103311.81
2023-02-13T08:43:17.988Z,103319.72
2023-02-13T08:44:50.849Z,103311.81
2023-02-13T08:46:23.088Z,103323.22
2023-02-13T08:47:55.795Z,103319.78
2023-02-13T08:49:27.272Z,103312.81
2023-02-13T08:50:58.776Z,103316.34
2023-02-13T08:52:30.618Z,103320.75
2023-02-13T08:54:04.394Z,103320.81
2023-02-13T08:55:35.867Z,103319.94
2023-02-13T08:57:08.529Z,103319.97
2023-02-13T08:58:40.394Z,103319.16
2023-02-13T09:00:14.646Z,103320.91
2023-02-13T09:01:46.407Z,103321.78
2023-02-13T09:03:18.116Z,103322.69
2023-02-13T09:04:49.741Z,103310.47
2023-02-13T09:06:21.787Z,103315.72
2023-02-13T09:07:53.349Z,103313.13
2023-02-13T09:09:24.936Z,103310.50
2023-02-13T09:10:57.717Z,103307.88
2023-02-13T09:12:29.270Z,103314.00
2023-02-13T09:14:00.744Z,103306.09
2023-02-13T09:15:33.697Z,103307.91
2023-02-13T09:17:05.250Z,103315.84
2023-02-13T09:18:36.810Z,103308.84
2023-02-13T09:20:10.205Z,103322.00
2023-02-13T09:21:41.741Z,103314.16
2023-02-13T09:23:13.272Z,103319.41
2023-02-13T09:24:44.855Z,103317.69
2023-02-13T09:26:16.619Z,103325.63
2023-02-13T09:27:48.157Z,103320.38
2023-02-13T09:29:19.743Z,103316.88
2023-02-13T09:30:52.693Z,103316.03
2023-02-13T09:32:24.312Z,103310.75
2023-02-13T09:33:55.869Z,103318.69
2023-02-13T09:35:29.099Z,103315.16
2023-02-13T09:37:00.597Z,103322.22
2023-02-13T09:38:32.076Z,103312.59
2023-02-13T09:40:04.402Z,103323.13
2023-02-13T09:41:37.518Z,103320.53
2023-02-13T09:43:14.307Z,103313.53
2023-02-13T09:44:46.370Z,103322.34
2023-02-13T09:46:21.453Z,103317.06
2023-02-13T09:47:53.155Z,103322.31
2023-02-13T09:49:28.095Z,103318.81
2023-02-13T09:50:59.988Z,103326.75
2023-02-13T09:52:34.433Z,103331.13
2023-02-13T09:54:07.073Z,103317.06
2023-02-13T09:55:41.458Z,103325.00
2023-02-13T09:57:17.054Z,103329.38
2023-02-13T09:58:49.514Z,103325.88
2023-02-13T10:00:22.111Z,103322.34
2023-02-13T10:01:56.105Z,103323.22
2023-02-13T10:03:32.402Z,103324.97
2023-02-13T10:05:10.264Z,103325.84
2023-02-13T10:06:52.857Z,103323.22
2023-02-13T10:08:29.462Z,103332.00
2023-02-13T10:10:02.555Z,103326.72
2023-02-13T10:11:44.079Z,103329.38
2023-02-13T10:13:23.580Z,103327.63
2023-02-13T10:15:01.290Z,103333.78
2023-02-13T10:16:35.506Z,103329.34
2023-02-13T10:18:11.552Z,103324.94
2023-02-13T10:19:45.893Z,103319.66
2023-02-13T10:21:20.369Z,103324.94
2023-02-13T10:22:55.117Z,103318.78
2023-02-13T10:24:31.257Z,103321.41
2023-02-13T10:26:04.774Z,103317.88
2023-02-13T10:27:40.019Z,103324.06
2023-02-13T10:29:34.402Z,103327.59
2023-02-13T10:31:10.251Z,103330.19
2023-02-13T10:32:45.398Z,103328.44
2023-02-13T10:34:22.033Z,103333.66
2023-02-13T10:35:57.829Z,103334.53
2023-02-13T10:37:30.346Z,103321.34
2023-02-13T10:39:03.058Z,103327.50
2023-02-13T10:40:38.998Z,103335.38
2023-02-13T10:42:16.674Z,103331.84
2023-02-13T10:43:54.484Z,103321.28
2023-02-13T10:45:33.336Z,103327.44
2023-02-13T10:47:12.661Z,103323.00
2023-02-13T10:48:55.809Z,103317.75
2023-02-13T10:50:31.841Z,103327.41
2023-02-13T10:52:10.197Z,103325.63
2023-02-13T10:53:46.676Z,103320.34
2023-02-13T10:55:31.713Z,103327.38
2023-02-13T10:57:08.939Z,103321.16
2023-02-13T10:58:47.327Z,103311.44
2023-02-13T11:00:21.773Z,103302.56
2023-02-13T11:01:56.411Z,103310.47
2023-02-13T11:03:28.794Z,103306.97
2023-02-13T11:05:01.390Z,103301.69
2023-02-13T11:06:35.690Z,103311.38
2023-02-13T11:08:13.593Z,103307.81
2023-02-13T11:09:47.534Z,103300.75
2023-02-13T11:11:34.758Z,103303.34
2023-02-13T11:13:15.281Z,103299.88
2023-02-13T11:14:53.832Z,103301.66
2023-02-13T11:16:25.471Z,103293.75
2023-02-13T11:17:58.522Z,103287.59
2023-02-13T11:19:32.225Z,103280.53
2023-02-13T11:21:09.081Z,103286.75
2023-02-13T11:22:45.075Z,103278.84
2023-02-13T11:24:19.224Z,103278.81
2023-02-13T11:25:55.838Z,103275.25
2023-02-13T11:27:30.447Z,103270.84
2023-02-13T11:29:04.755Z,103270.81
2023-02-13T11:30:37.455Z,103276.09
2023-02-13T11:32:20.005Z,103275.22
2023-02-13T11:33:51.628Z,103276.13
2023-02-13T11:35:28.098Z,103270.84
2023-02-13T11:37:14.767Z,103266.34
2023-02-13T11:38:57.162Z,103267.19
2023-02-13T11:40:30.734Z,103265.41
2023-02-13T11:42:02.335Z,103259.25
2023-02-13T11:43:35.329Z,103253.13
2023-02-13T11:45:08.435Z,103256.66
2023-02-13T11:46:46.064Z,103251.38
2023-02-13T11:48:20.851Z,103252.22
2023-02-13T11:49:52.451Z,103256.53
2023-02-13T11:51:34.896Z,103253.88
2023-02-13T11:53:07.974Z,103253.88
2023-02-13T11:54:42.464Z,103258.25
2023-02-13T11:56:15.216Z,103260.88
2023-02-13T11:57:55.397Z,103253.78
2023-02-13T11:59:30.967Z,103249.44
2023-02-13T12:01:10.194Z,103238.00
2023-02-13T12:02:46.149Z,103243.28
2023-02-13T12:04:18.467Z,103236.25
2023-02-13T12:06:00.343Z,103234.50
2023-02-13T12:07:33.203Z,103233.59
2023-02-13T12:09:04.921Z,103229.13
2023-02-13T12:10:38.503Z,103230.88
2023-02-13T12:12:16.082Z,103235.25
2023-02-13T12:13:47.837Z,103228.22
2023-02-13T12:15:21.600Z,103229.97
2023-02-13T12:16:57.019Z,103237.03
2023-02-13T12:18:30.738Z,103227.25
2023-02-13T12:20:02.507Z,103236.09
2023-02-13T12:21:44.922Z,103228.09
2023-02-13T12:23:26.532Z,103225.47
2023-02-13T12:25:19.137Z,103225.47
2023-02-13T12:26:54.853Z,103223.69
2023-02-13T12:28:35.060Z,103215.75
2023-02-13T12:30:14.935Z,103217.50
2023-02-13T12:31:54.176Z,103212.16
2023-02-13T12:33:33.813Z,103206.78
2023-02-13T12:35:15.525Z,103212.91
2023-02-13T12:36:53.702Z,103206.72
2023-02-13T12:38:32.128Z,103207.50
2023-02-13T12:40:15.799Z,103204.88
2023-02-13T12:41:51.906Z,103203.09
2023-02-13T12:43:42.911Z,103208.41
2023-02-13T12:45:31.879Z,103204.06
2023-02-13T12:47:10.425Z,103200.56
2023-02-13T12:48:49.243Z,103203.16
2023-02-13T12:50:30.256Z,103194.34
2023-02-13T12:52:09.162Z,103196.94
2023-02-13T12:53:47.863Z,103198.69
2023-02-13T12:55:26.923Z,103195.09
2023-02-13T12:57:07.386Z,103193.19
2023-02-13T12:58:49.513Z,103188.69
2023-02-13T13:00:26.917Z,103189.38
2023-02-13T13:02:13.997Z,103186.53
2023-02-13T13:03:52.054Z,103192.41
2023-02-13T13:05:27.404Z,103187.50
2023-02-13T13:07:09.285Z,103178.19
2023-02-13T13:08:50.910Z,103178.59
2023-02-13T13:10:32.595Z,103183.53
2023-02-13T13:12:10.596Z,103177.00
2023-02-13T13:13:52.783Z,103169.72
2023-02-13T13:15:31.589Z,103170.41
2023-02-13T13:17:09.360Z,103161.25
2023-02-13T13:18:50.031Z,103168.00
2023-02-13T13:20:32.020Z,103170.38
2023-02-13T13:22:05.601Z,103164.81
2023-02-13T13:23:40.034Z,103160.16
2023-02-13T13:25:18.483Z,103159.97
2023-02-13T13:26:54.158Z,103160.63
2023-02-13T13:28:28.869Z,103165.59
2023-02-13T13:30:03.396Z,103159.09
2023-02-13T13:31:35.908Z,103159.66
2023-02-13T13:33:14.035Z,103154.09
2023-02-13T13:34:47.147Z,103164.59
2023-02-13T13:36:21.742Z,103151.19
2023-02-13T13:38:02.616Z,103154.56
2023-02-13T13:39:40.519Z,103146.38
2023-02-13T13:41:15.296Z,103143.44
2023-02-13T13:42:51.775Z,103148.31
2023-02-13T13:44:35.650Z,103148.88
2023-02-13T13:46:12.018Z,103139.63
2023-02-13T13:47:54.046Z,103149.06
2023-02-13T13:49:37.996Z,103129.72
2023-02-13T13:51:10.299Z,103133.41
2023-02-13T13:53:01.807Z,103126.31
2023-02-13T13:54:34.428Z,103126.03
2023-02-13T13:56:08.499Z,103122.25
2023-02-13T13:57:57.785Z,103120.00
2023-02-13T13:59:53.834Z,103119.34
2023-02-13T14:01:29.377Z,103112.94
2023-02-13T14:03:28.071Z,103119.84
2023-02-13T14:05:09.615Z,103117.41
2023-02-13T14:06:58.918Z,103105.41
2023-02-13T14:09:03.493Z,103120.22
2023-02-13T14:11:08.242Z,103111.97
2023-02-13T14:12:46.214Z,103109.41
2023-02-13T14:14:52.387Z,103111.97
2023-02-13T14:16:42.792Z,103108.31
2023-02-13T14:18:20.480Z,103106.00
2023-02-13T14:19:52.871Z,103104.03
2023-02-13T14:21:24.711Z,103098.56
2023-02-13T14:22:56.469Z,103107.53
2023-02-13T14:24:27.977Z,103101.78
2023-02-13T14:26:12.993Z,103106.03
2023-02-13T14:27:44.531Z,103109.28
2023-02-13T14:29:34.385Z,103108.09
2023-02-13T14:31:07.516Z,103112.56
2023-02-13T14:32:41.135Z,103113.53
2023-02-13T14:34:19.038Z,103103.59
2023-02-13T14:35:59.304Z,103111.22
2023-02-13T14:37:36.621Z,103100.88
2023-02-13T14:39:19.323Z,103100.13
2023-02-13T14:40:51.601Z,103098.22
2023-02-13T14:42:25.450Z,103092.50
2023-02-13T14:43:57.279Z,103094.75
2023-02-13T14:45:32.226Z,103099.72
2023-02-13T14:47:05.207Z,103094.97
2023-02-13T14:48:43.061Z,103099.00
2023-02-13T14:50:17.889Z,103096.81
2023-02-13T14:51:51.224Z,103103.38
2023-02-13T14:53:24.636Z,103098.41
2023-02-13T14:55:00.812Z,103105.66
2023-02-13T14:56:32.585Z,103093.41
2023-02-13T14:58:06.367Z,103097.16
2023-02-13T14:59:39.200Z,103092.88
2023-02-13T15:01:20.747Z,103096.63
2023-02-13T15:02:55.267Z,103091.63
2023-02-13T15:04:31.332Z,103095.44
2023-02-13T15:06:05.048Z,103097.38
2023-02-13T15:07:38.044Z,103094.78
2023-02-13T15:09:19.722Z,103093.97
2023-02-13T15:10:52.694Z,103089.72
2023-02-13T15:12:25.296Z,103085.50
2023-02-13T15:13:56.798Z,103082.19
2023-02-13T15:15:29.960Z,103080.53
2023-02-13T15:17:07.108Z,103079.81
2023-02-13T15:18:41.372Z,103080.78
2023-02-13T15:20:21.731Z,103077.28
2023-02-13T15:21:54.805Z,103077.38
2023-02-13T15:23:29.053Z,103077.50
2023-02-13T15:25:00.817Z,103080.22
2023-02-13T15:26:32.320Z,103075.81
2023-02-13T15:28:05.410Z,103078.47
2023-02-13T15:29:49.301Z,103072.28
2023-02-13T15:31:23.178Z,103075.84
2023-02-13T15:32:55.424Z,103074.16
2023-02-13T15:34:28.038Z,103070.78
2023-02-13T15:36:01.807Z,103064.69
2023-02-13T15:37:33.467Z,103068.25
2023-02-13T15:39:09.503Z,103062.97
2023-02-13T15:40:41.661Z,103063.97
2023-02-13T15:42:13.502Z,103072.03
2023-02-13T15:43:46.031Z,103068.56
2023-02-13T15:45:18.618Z,103073.88
2023-02-13T15:46:53.718Z,103065.97
2023-02-13T15:48:25.229Z,103067.78
2023-02-13T15:49:57.046Z,103062.47
2023-02-13T15:51:30.717Z,103070.47
2023-02-13T15:53:03.697Z,103076.72
2023-02-13T15:54:36.013Z,103067.94
2023-02-13T15:56:13.786Z,103067.03
2023-02-13T15:57:45.613Z,103067.06
2023-02-13T15:59:18.481Z,103070.66
2023-02-13T16:00:50.081Z,103075.97
2023-02-13T16:02:23.677Z,103069.91
2023-02-13T16:03:58.332Z,103077.00
2023-02-13T16:05:40.100Z,103069.97
2023-02-13T16:07:14.303Z,103073.59
2023-02-13T16:08:51.341Z,103064.78
2023-02-13T16:10:27.542Z,103064.91
2023-02-13T16:12:01.388Z,103069.34
2023-02-13T16:13:33.069Z,103074.69
2023-02-13T16:15:06.463Z,103063.25
2023-02-13T16:16:44.445Z,103067.69
2023-02-13T16:18:18.625Z,103058.88
2023-02-13T16:19:53.446Z,103066.88
2023-02-13T16:21:26.482Z,103064.31
2023-02-13T16:23:01.447Z,103064.38
2023-02-13T16:24:33.383Z,103058.28
2023-02-13T16:26:07.754Z,103065.47
2023-02-13T16:27:42.180Z,103061.16
2023-02-13T16:29:18.475Z,103062.09
2023-02-13T16:30:52.511Z,103059.53
2023-02-13T16:32:26.846Z,103063.13
2023-02-13T16:33:58.763Z,103064.94
2023-02-13T16:35:31.356Z,103057.97
2023-02-13T16:37:02.899Z,103065.09
2023-02-13T16:38:36.732Z,103064.31
2023-02-13T16:40:26.907Z,103061.75
2023-02-13T16:41:59.281Z,103054.78
2023-02-13T16:43:38.526Z,103056.59
2023-02-13T16:45:22.819Z,103058.41
2023-02-13T16:46:55.803Z,103055.75
2023-02-13T16:48:27.286Z,103057.53
2023-02-13T16:49:58.902Z,103062.88
2023-02-13T16:51:32.966Z,103061.16
2023-02-13T16:53:04.641Z,103061.22
2023-02-13T16:54:39.321Z,103054.25
2023-02-13T16:56:11.406Z,103063.16
2023-02-13T16:57:44.360Z,103061.50
2023-02-13T16:59:22.330Z,103067.75
2023-02-13T17:00:54.417Z,103066.06
2023-02-13T17:02:27.170Z,103062.56
2023-02-13T17:03:58.707Z,103064.38
2023-02-13T17:05:30.613Z,103073.22
2023-02-13T17:07:02.172Z,103078.63
2023-02-13T17:08:33.749Z,103082.19
2023-02-13T17:10:07.716Z,103084.88
2023-02-13T17:11:39.428Z,103088.44
2023-02-13T17:13:14.460Z,103083.25
2023-02-13T17:14:46.380Z,103089.44
2023-02-13T17:16:17.926Z,103093.88
2023-02-13T17:17:50.549Z,103093.03
2023-02-13T17:19:22.053Z,103094.00
2023-02-13T17:20:53.952Z,103098.44
2023-02-13T17:22:31.037Z,103106.47
2023-02-13T17:24:02.638Z,103103.94
2023-02-13T17:25:37.554Z,103103.09
2023-02-13T17:27:09.436Z,103112.03
2023-02-13T17:28:41.016Z,103112.91
2023-02-13T17:30:13.628Z,103123.56
2023-02-13T17:31:45.315Z,103120.06
2023-02-13T17:33:20.086Z,103120.97
2023-02-13T17:34:51.688Z,103121.88
2023-02-13T17:36:23.220Z,103122.78
2023-02-13T17:37:54.745Z,103122.81
2023-02-13T17:39:26.255Z,103120.19
2023-02-13T17:41:00.390Z,103121.09
2023-02-13T17:42:32.229Z,103119.34
2023-02-13T17:44:03.849Z,103106.16
2023-02-13T17:45:35.423Z,103119.38
2023-02-13T17:47:06.972Z,103114.97
2023-02-13T17:48:38.472Z,103114.97
2023-02-13T17:50:11.136Z,103117.63
2023-02-13T17:51:45.044Z,103121.22
2023-02-13T17:53:23.181Z,103125.63
2023-02-13T17:54:54.749Z,103122.97
2023-02-13T17:56:27.607Z,103111.53
2023-02-13T17:57:59.473Z,103115.94
2023-02-13T17:59:30.989Z,103115.94
2023-02-13T18:01:02.759Z,103112.44
2023-02-13T18:02:35.090Z,103117.72
2023-02-13T18:04:06.562Z,103116.84
2023-02-13T18:05:38.115Z,103110.69